Sunday, November 18, 2018, 9:37 AM EST
Back to Local

KSYR, Syracuse Hancock International Airport

Location: Syracuse, NY, United States Lat: 43.117
Local Time: 9:37 AM EST (14:37 GMT) Lon: -76.1
Time Zone: US/Eastern Elev: 410 ft

Show me the last for .
Show Coded

Time T Td Feel RH Dir Speed Gust Alt SLP Vis Weather Sky Remarks
2018-11-18 08:54 30 21 24 68 110° 6 - 30.35 30.35 10 BKN048 BKN110 OVC200 None
2018-11-18 07:54 28 22 24 77 100° 3 - 30.36 30.36 10 FEW038 BKN050 OVC150 None
2018-11-18 06:54 28 22 24 77 100° 3 - 30.35 30.36 10 BKN050 OVC150 6-hr Precip Total (7am): 0.00"
Snow depth: 5"
6-hr Min Temp (7am): 28.0°F
6-hr Max Temp (7am): 30.0°F
2018-11-18 05:54 29 22 25 74 70° 3 - 30.34 30.35 10 BKN050 OVC150 None
2018-11-18 04:54 29 22 - 74 - Calm - 30.34 30.34 10 OVC046 None
2018-11-18 03:54 29 21 - 71 - Calm - 30.34 30.34 10 OVC045 6-hr Precip Total (4am): 0.00"
2018-11-18 02:54 30 19 - 63 - Calm - 30.34 30.34 10 OVC047 None
2018-11-18 01:54 30 20 26 65 250° 3 - 30.35 30.35 9 OVC046 1-hr Precip Total: Trace
2018-11-18 00:54 30 21 23 68 320° 7 - 30.33 30.34 9 -SN OVC046 1-hr Precip Total: Trace
6-hr Precip Total (1am): 0.00"
Snow depth: 5"
6-hr Min Temp (1am): 30.0°F
6-hr Max Temp (1am): 34.0°F
2018-11-17 23:54 31 22 24 68 320° 7 - 30.33 30.33 9 -SN OVC043 1-hr Precip Total: Trace
24-hr Min Temp (12am): 30.9°F
24-hr Max Temp (12am): 37.9°F
2018-11-17 22:54 32 22 24 65 310° 9 - 30.31 30.31 9 -SN BKN036 OVC048 1-hr Precip Total: Trace
2018-11-17 21:54 33 26 26 75 290° 8 - 30.29 30.29 9 -SN SCT042 OVC050 1-hr Precip Total: Trace
6-hr Precip Total (10pm): 0.00"
2018-11-17 19:54 32 30 22 92 260° 14 - 30.28 30.28 9 -SN FEW016 BKN038 OVC046 1-hr Precip Total: Trace
2018-11-17 19:42 32 30 24 92 260° 10 - 30.27 - 9 -SN FEW013 SCT019 OVC040 1-hr Precip Total: Trace
2018-11-17 19:08 32 30 23 92 270° 12 - 30.26 - 4 -SN BR FEW007 SCT011 OVC024 1-hr Precip Total: Trace
2018-11-17 19:03 33 29 24 84 270° 13 - 30.26 - 1 -SN BR FEW012 OVC023 1-hr Precip Total: Trace
2018-11-17 18:54 34 28 24 78 280° 15 - 30.25 30.25 5 -SN BKN023 OVC035 1-hr Precip Total: Trace
6-hr Precip Total (7pm): 0.00"
Snow depth: 5"
6-hr Min Temp (7pm): 34.0°F
6-hr Max Temp (7pm): 36.0°F
2018-11-17 18:38 34 27 21 74 260° 16 24 30.24 - 9 -SN BKN027 OVC036 None
2018-11-17 17:54 35 26 26 69 250° 14 - 30.22 30.22 9 -SN OVC038 1-hr Precip Total: Trace
2018-11-17 16:54 35 27 26 72 240° 14 - 30.20 30.21 10 OVC040 None
2018-11-17 15:54 35 28 27 75 240° 12 - 30.18 30.19 10 OVC045 None
2018-11-17 14:54 36 28 27 72 250° 14 - 30.16 30.16 10 FEW035 OVC043 None
2018-11-17 13:54 36 29 27 75 260° 14 - 30.15 30.15 10 FEW025 OVC047 None
2018-11-17 12:54 37 29 28 72 260° 16 - 30.13 30.14 10 SCT026 BKN034 OVC046 Snow depth: 6"
Water equiv. of snow on ground: 1.6"
6-hr Min Temp (1pm): 36.0°F
6-hr Max Temp (1pm): 37.9°F
2018-11-17 11:54 37 29 27 72 270° 17 - 30.13 30.13 10 BKN029 OVC050 None
2018-11-17 10:54 37 29 29 72 250° 13 - 30.13 30.13 10 BKN049 OVC060 None
2018-11-17 09:54 37 29 29 72 260° 13 - 30.11 30.11 10 OVC049 None

Support USWX by starting your Amazon purchase here.